Time;durP1;ratioP1;P1;durP2;ratioP2;P2;SDS_P1;SDS_P2;PMS_P1;PMS_P2;Temp;Humidity;BMP_temperature;BMP_pressure;BME280_temperature;BME280_humidity;BME280_pressure;Samples;Min_cycle;Max_cycle;Signal;HPM_P1;HPM_P2
2022/07/13 00:00:37;;;;;;;17.60;12.50;;;;;;;23.60;61.75;101597.38;4884352;28;121616;-76
2022/07/13 00:03:03;;;;;;;21.08;13.70;;;;;;;23.62;62.00;101594.81;4911581;28;121778;-76
2022/07/13 00:08:32;;;;;;;19.80;14.60;;;;;;;23.61;61.88;101600.94;4892508;28;121922;-77
2022/07/13 00:10:57;;;;;;;22.58;15.50;;;;;;;23.56;61.80;101599.69;4887328;28;121747;-76
2022/07/13 00:13:47;;;;;;;21.30;15.13;;;;;;;23.57;61.88;101604.00;4885486;28;122030;-77
2022/07/13 00:16:21;;;;;;;28.25;17.50;;;;;;;23.54;61.64;101610.63;4910778;28;121885;-76
2022/07/13 00:18:47;;;;;;;26.25;17.95;;;;;;;23.56;61.86;101602.50;4881412;28;122250;-76
2022/07/13 00:21:16;;;;;;;26.02;17.83;;;;;;;23.56;62.33;101594.09;4889305;28;122242;-76
2022/07/13 00:23:42;;;;;;;25.20;16.83;;;;;;;23.57;62.19;101592.81;4897909;28;121618;-76
2022/07/13 00:26:09;;;;;;;23.53;16.20;;;;;;;23.58;62.13;101585.94;4892513;28;121975;-76
2022/07/13 00:28:34;;;;;;;25.65;16.73;;;;;;;23.58;62.46;101595.09;4887991;28;121659;-76
2022/07/13 00:31:19;;;;;;;24.50;17.02;;;;;;;23.60;62.50;101594.56;4892796;28;122398;-76
2022/07/13 00:33:45;;;;;;;25.50;17.30;;;;;;;23.60;62.21;101586.16;4921103;28;122398;-76
2022/07/13 00:36:10;;;;;;;22.67;15.57;;;;;;;23.60;62.08;101580.56;4884290;28;122029;-76
2022/07/13 00:38:39;;;;;;;23.43;15.73;;;;;;;23.61;61.75;101575.72;4890334;28;122034;-77
2022/07/13 00:41:06;;;;;;;23.13;14.75;;;;;;;23.60;62.26;101580.56;4889412;28;121724;-76
2022/07/13 00:43:32;;;;;;;23.55;15.10;;;;;;;23.55;62.11;101561.75;4890618;28;122100;-76
2022/07/13 00:46:16;;;;;;;23.58;16.17;;;;;;;23.61;61.81;101570.88;4922117;28;121699;-76
2022/07/13 00:48:42;;;;;;;22.83;15.18;;;;;;;23.60;62.46;101563.75;4870745;28;122453;-76
2022/07/13 00:51:27;;;;;;;24.00;16.42;;;;;;;23.62;61.64;101560.44;4855382;28;121898;-76
2022/07/13 00:53:54;;;;;;;23.57;16.07;;;;;;;23.60;61.88;101543.41;4878789;28;122345;-76
2022/07/13 00:56:41;;;;;;;24.42;15.75;;;;;;;23.61;61.83;101540.06;4871856;28;122395;-76
2022/07/13 00:59:07;;;;;;;23.03;14.60;;;;;;;23.61;61.67;101534.47;4882654;28;122207;-77
2022/07/13 01:01:35;;;;;;;22.23;15.25;;;;;;;23.60;61.40;101538.56;4889629;28;121872;-76
2022/07/13 01:04:01;;;;;;;21.00;14.52;;;;;;;23.62;62.27;101533.19;4886224;28;121967;-76
2022/07/13 01:06:45;;;;;;;21.00;15.27;;;;;;;23.64;62.18;101535.47;4887513;28;121913;-76
2022/07/13 01:09:30;;;;;;;25.20;17.77;;;;;;;23.60;61.36;101541.34;4886744;28;121529;-77
2022/07/13 01:12:14;;;;;;;27.60;18.80;;;;;;;23.58;61.80;101535.53;4902751;28;122330;-76
2022/07/13 01:14:40;;;;;;;23.83;16.02;;;;;;;23.57;61.96;101534.75;4919441;28;121820;-76
2022/07/13 01:17:06;;;;;;;22.45;14.95;;;;;;;23.61;61.53;101526.06;4903692;28;121956;-78
2022/07/13 01:19:56;;;;;;;22.70;14.00;;;;;;;23.60;62.01;101521.75;4889912;28;122074;-77
2022/07/13 01:22:25;;;;;;;21.90;13.60;;;;;;;23.62;61.62;101519.19;4879218;28;122433;-76
2022/07/13 01:24:54;;;;;;;19.77;14.25;;;;;;;23.63;61.54;101512.31;4908356;28;121669;-78
2022/07/13 01:27:20;;;;;;;19.88;13.07;;;;;;;23.65;62.09;101517.38;4902184;28;121467;-76
2022/07/13 01:29:45;;;;;;;19.85;13.95;;;;;;;23.60;61.13;101507.75;4869842;28;123000;-76
2022/07/13 01:32:11;;;;;;;18.23;12.70;;;;;;;23.65;61.77;101509.75;4890910;28;121543;-76
2022/07/13 01:34:37;;;;;;;18.23;12.27;;;;;;;23.67;61.46;101500.84;4905576;28;122068;-76
2022/07/13 01:37:03;;;;;;;18.73;13.33;;;;;;;23.64;61.85;101502.63;4892163;28;122188;-77
2022/07/13 01:39:29;;;;;;;19.35;14.10;;;;;;;23.65;61.51;101504.13;4889516;28;123340;-76
2022/07/13 01:41:55;;;;;;;24.15;16.10;;;;;;;23.68;61.94;101519.91;4890359;28;122427;-77
2022/07/13 01:44:40;;;;;;;24.73;17.00;;;;;;;23.65;61.19;101526.53;4864913;28;122924;-77
2022/07/13 01:47:10;;;;;;;21.88;16.10;;;;;;;23.65;61.78;101520.94;4890830;28;121998;-76
2022/07/13 01:49:55;;;;;;;24.25;17.10;;;;;;;23.65;61.14;101509.75;4887756;28;121925;-77
2022/07/13 01:52:21;;;;;;;24.05;17.45;;;;;;;23.61;61.31;101503.66;4887392;28;122009;-77
2022/07/13 01:54:49;;;;;;;23.50;17.33;;;;;;;23.65;61.72;101504.13;4871385;28;121909;-76
2022/07/13 01:57:15;;;;;;;24.48;16.60;;;;;;;23.68;61.76;101500.31;4881492;28;121865;-77
2022/07/13 01:59:41;;;;;;;27.27;17.77;;;;;;;23.67;61.89;101498.78;4893599;28;121728;-76
2022/07/13 02:02:06;;;;;;;25.48;17.75;;;;;;;23.65;61.78;101495.72;4888644;28;123266;-76
2022/07/13 02:05:28;;;;;;;24.80;16.95;;;;;;;23.68;61.36;101496.75;4882126;28;121712;-76
2022/07/13 02:07:54;;;;;;;23.77;16.52;;;;;;;23.67;61.31;101501.59;4888752;28;121551;-77
2022/07/13 02:10:34;;;;;;;23.42;16.20;;;;;;;23.64;61.87;101485.06;4885099;28;122064;-76
2022/07/13 02:13:02;;;;;;;23.00;17.60;;;;;;;23.68;61.20;101503.13;4886763;28;122004;-77
2022/07/13 02:15:28;;;;;;;28.27;18.30;;;;;;;23.66;61.06;101488.09;4870298;28;121869;-77
2022/07/13 02:18:15;;;;;;;25.08;17.45;;;;;;;23.65;60.90;101490.13;4887243;28;124577;-76
2022/07/13 02:20:41;;;;;;;26.57;17.83;;;;;;;23.61;61.37;101492.47;4906409;28;122575;-77
2022/07/13 02:23:25;;;;;;;27.07;18.20;;;;;;;23.62;61.18;101477.19;4903381;28;121841;-76
2022/07/13 02:26:09;;;;;;;28.25;18.10;;;;;;;23.60;61.46;101482.53;4870843;28;121593;-77
2022/07/13 02:28:38;;;;;;;25.23;18.17;;;;;;;23.62;61.81;101484.81;4885377;28;122025;-76
2022/07/13 02:31:04;;;;;;;27.70;17.90;;;;;;;23.66;61.33;101476.88;4870585;28;123079;-76
2022/07/13 02:33:30;;;;;;;27.80;18.73;;;;;;;23.64;61.43;101462.66;4886894;28;121763;-76
2022/07/13 02:36:14;;;;;;;28.80;19.20;;;;;;;23.66;61.59;101460.09;4886756;28;122121;-76
2022/07/13 02:38:40;;;;;;;27.75;19.13;;;;;;;23.67;62.18;101462.38;4887093;28;122130;-77
2022/07/13 02:41:05;;;;;;;25.73;17.98;;;;;;;23.67;61.84;101451.19;4885848;28;121885;-76
2022/07/13 02:43:31;;;;;;;26.92;19.23;;;;;;;23.69;62.03;101436.66;4887953;28;121575;-76
2022/07/13 02:46:16;;;;;;;26.55;17.67;;;;;;;23.72;62.08;101436.34;4883736;28;121720;-77
2022/07/13 02:48:42;;;;;;;26.00;17.73;;;;;;;23.69;62.17;101434.59;4887896;28;121896;-76
2022/07/13 02:51:08;;;;;;;27.23;17.25;;;;;;;23.72;61.70;101436.34;4887135;28;121648;-77
2022/07/13 02:54:06;;;;;;;25.30;17.02;;;;;;;23.72;61.70;101433.56;4883241;28;122264;-77
2022/07/13 02:56:55;;;;;;;26.83;18.30;;;;;;;23.73;61.59;101437.88;4882002;28;122924;-77
2022/07/13 02:59:21;;;;;;;31.52;20.38;;;;;;;23.71;61.50;101429.25;4884784;28;122131;-76
2022/07/13 03:02:07;;;;;;;31.38;22.15;;;;;;;23.70;62.48;101427.72;4885592;28;121806;-76
2022/07/13 03:04:36;;;;;;;33.08;22.23;;;;;;;23.69;61.80;101429.00;4899861;28;121955;-77
2022/07/13 03:07:02;;;;;;;35.80;22.87;;;;;;;23.68;62.43;101435.91;4884320;28;122723;-77
2022/07/13 03:09:30;;;;;;;33.77;23.17;;;;;;;23.69;62.26;101436.66;4873668;28;122400;-76
2022/07/13 03:14:40;;;;;;;32.78;22.15;;;;;;;23.70;62.18;101444.53;4870704;28;121920;-76
2022/07/13 03:17:06;;;;;;;29.33;21.17;;;;;;;23.72;61.52;101441.97;4895473;28;122403;-76
2022/07/13 03:19:32;;;;;;;32.35;22.50;;;;;;;23.72;62.06;101453.16;4885679;28;122238;-76
2022/07/13 03:22:05;;;;;;;32.10;22.85;;;;;;;23.73;61.82;101457.47;4919425;28;121834;-76
2022/07/13 03:24:51;;;;;;;31.52;21.50;;;;;;;23.68;61.77;101449.13;4911942;28;122020;-76
2022/07/13 03:27:17;;;;;;;32.00;21.45;;;;;;;23.70;62.10;101452.94;4917231;28;122518;-76
2022/07/13 03:29:46;;;;;;;30.92;21.48;;;;;;;23.72;61.70;101455.97;4909679;28;121845;-76
2022/07/13 03:32:13;;;;;;;32.27;22.60;;;;;;;23.68;62.31;101449.91;4886621;28;123051;-76
2022/07/13 03:34:57;;;;;;;30.83;21.67;;;;;;;23.69;61.58;101448.63;4900113;28;121781;-76
2022/07/13 03:37:46;;;;;;;31.38;21.63;;;;;;;23.70;61.86;101454.97;4887786;28;121740;-76
2022/07/13 03:40:15;;;;;;;33.00;21.83;;;;;;;23.67;61.77;101450.44;4852010;28;121951;-77
2022/07/13 03:42:42;;;;;;;29.73;20.27;;;;;;;23.68;61.90;101444.28;4869545;28;121972;-77
2022/07/13 03:45:08;;;;;;;30.20;19.93;;;;;;;23.70;61.51;101443.78;4868905;28;121921;-77
2022/07/13 03:47:35;;;;;;;30.40;20.00;;;;;;;23.66;62.04;101430.06;4886352;28;122287;-76
2022/07/13 03:50:02;;;;;;;31.43;20.90;;;;;;;23.68;61.83;101435.13;4895734;28;122272;-76
2022/07/13 03:52:49;;;;;;;29.23;20.20;;;;;;;23.69;62.25;101431.06;4872569;28;123526;-77
2022/07/13 03:55:17;;;;;;;31.10;21.20;;;;;;;23.65;62.07;101417.31;4882196;28;122047;-76
2022/07/13 03:57:44;;;;;;;31.43;22.83;;;;;;;23.67;61.93;101411.97;4884707;28;122035;-76
2022/07/13 04:00:12;;;;;;;29.70;20.38;;;;;;;23.69;62.41;101401.00;4921774;28;123422;-76
2022/07/13 04:05:26;;;;;;;24.63;17.58;;;;;;;23.71;61.46;101401.22;4905795;28;122182;-76
2022/07/13 04:08:10;;;;;;;27.92;19.52;;;;;;;23.74;61.53;101405.78;4893133;28;122116;-76
2022/07/13 04:10:55;;;;;;;30.03;20.90;;;;;;;23.73;61.74;101414.72;4921423;28;121848;-76
2022/07/13 04:16:05;;;;;;;27.95;18.65;;;;;;;23.72;61.49;101394.34;4935097;28;125002;-85
2022/07/13 04:18:51;;;;;;;25.20;18.00;;;;;;;23.75;61.88;101407.28;4916874;28;122612;-84
2022/07/13 04:21:17;;;;;;;25.50;17.77;;;;;;;23.81;61.79;101413.59;4947193;28;122253;-84
2022/07/13 04:24:02;;;;;;;27.80;19.38;;;;;;;23.82;61.77;101415.09;4951736;28;121929;-85
2022/07/13 04:26:28;;;;;;;30.42;19.92;;;;;;;23.83;61.73;101410.25;4914280;28;124111;-84
2022/07/13 04:28:54;;;;;;;29.92;21.05;;;;;;;23.79;61.75;101415.41;4931347;28;124429;-85
2022/07/13 04:31:40;;;;;;;28.50;20.17;;;;;;;23.80;61.08;101402.91;4915723;28;122722;-85
2022/07/13 04:34:07;;;;;;;29.90;20.65;;;;;;;23.80;61.37;101397.31;4912346;28;123381;-85
2022/07/13 04:36:35;;;;;;;28.02;19.67;;;;;;;23.86;61.00;101409.97;4944622;28;125393;-85
2022/07/13 04:39:04;;;;;;;33.35;22.33;;;;;;;23.85;61.69;101396.47;4960293;28;121823;-85
2022/07/13 04:41:48;;;;;;;29.40;20.30;;;;;;;23.78;61.25;101383.06;4947180;28;125940;-85
2022/07/13 04:46:59;;;;;;;28.80;18.90;;;;;;;23.88;61.50;101384.97;4931101;28;122771;-85
2022/07/13 04:49:25;;;;;;;33.80;23.42;;;;;;;23.94;61.46;101390.53;4947589;28;125997;-84
2022/07/13 04:51:52;;;;;;;33.83;21.70;;;;;;;23.95;61.63;101385.69;4947617;28;123475;-85
2022/07/13 04:54:20;;;;;;;30.23;20.57;;;;;;;23.96;62.13;101376.00;4936242;28;124661;-85
2022/07/13 04:56:46;;;;;;;33.63;22.02;;;;;;;23.91;62.17;101360.78;4931463;28;125670;-84
2022/07/13 04:59:12;;;;;;;31.17;20.63;;;;;;;23.98;62.33;101382.59;4947104;28;122223;-84
2022/07/13 05:01:39;;;;;;;30.52;21.10;;;;;;;23.97;62.33;101383.88;4918022;28;124290;-85
2022/07/13 05:04:24;;;;;;;29.10;20.60;;;;;;;23.93;62.32;101386.22;4945813;28;122139;-85
2022/07/13 05:06:52;;;;;;;28.73;20.25;;;;;;;23.89;62.63;101382.94;4946747;28;122683;-85
2022/07/13 05:09:18;;;;;;;28.23;19.58;;;;;;;23.86;62.97;101384.75;4913688;28;125546;-86
2022/07/13 05:12:04;;;;;;;28.27;18.88;;;;;;;23.86;62.93;101389.59;4894673;28;122827;-85
2022/07/13 05:14:31;;;;;;;28.10;18.70;;;;;;;23.84;62.91;101386.56;4930539;28;124863;-86
2022/07/13 05:16:57;;;;;;;28.93;18.93;;;;;;;23.77;62.66;101385.13;4945109;28;123895;-86
2022/07/13 05:19:22;;;;;;;28.33;19.13;;;;;;;23.73;63.80;101376.25;4946586;28;122036;-86
2022/07/13 05:21:49;;;;;;;33.05;21.10;;;;;;;23.73;64.06;101364.28;4927892;28;125127;-85
2022/07/13 05:24:15;;;;;;;29.58;20.70;;;;;;;23.68;64.22;101354.66;4932261;28;125652;-85
2022/07/13 05:26:41;;;;;;;31.15;21.08;;;;;;;23.68;64.30;101351.13;4946726;28;121987;-85
2022/07/13 05:29:27;;;;;;;29.65;20.65;;;;;;;23.69;64.18;101359.00;4909453;28;123237;-85
2022/07/13 05:31:53;;;;;;;33.50;21.85;;;;;;;23.68;64.17;101365.13;4947113;28;122624;-85
2022/07/13 05:34:19;;;;;;;33.28;22.15;;;;;;;23.64;64.14;101356.22;4948213;28;122497;-86
2022/07/13 05:36:46;;;;;;;39.50;24.33;;;;;;;23.73;64.40;101387.47;4942113;28;122213;-86
2022/07/13 05:39:12;;;;;;;33.50;23.05;;;;;;;23.69;64.35;101381.41;4918643;28;122345;-85
2022/07/13 05:44:26;;;;;;;42.17;26.57;;;;;;;23.68;64.99;101379.88;4932176;28;122357;-85
2022/07/13 05:46:52;;;;;;;38.50;24.70;;;;;;;23.64;64.45;101370.22;4923442;28;122301;-86
2022/07/13 05:49:46;;;;;;;42.38;26.30;;;;;;;23.68;64.67;101367.91;4914356;28;122685;-86
2022/07/13 05:52:18;;;;;;;41.13;26.65;;;;;;;23.62;64.93;101359.56;4909495;28;122553;-86
2022/07/13 05:54:45;;;;;;;43.65;27.70;;;;;;;23.66;64.94;101365.66;4920778;28;124964;-85
2022/07/13 05:57:11;;;;;;;44.78;28.77;;;;;;;23.71;65.12;101376.03;4946219;28;125790;-85
2022/07/13 05:59:36;;;;;;;42.47;28.58;;;;;;;23.65;65.31;101364.09;4963970;28;122279;-85
2022/07/13 06:04:46;;;;;;;48.05;30.73;;;;;;;23.67;64.71;101355.97;4945135;28;124022;-85
2022/07/13 06:10:01;;;;;;;49.10;30.20;;;;;;;23.69;64.96;101356.19;4933505;28;123618;-85
2022/07/13 06:12:29;;;;;;;46.17;29.70;;;;;;;23.69;65.40;101353.38;4923989;28;122650;-84
2022/07/13 06:14:55;;;;;;;47.10;29.13;;;;;;;23.70;65.16;101356.94;4926822;28;122841;-85
2022/07/13 06:17:21;;;;;;;45.15;28.48;;;;;;;23.71;64.91;101350.81;4939964;28;122810;-85
2022/07/13 06:22:36;;;;;;;39.17;25.40;;;;;;;23.68;65.02;101335.06;4927867;28;123421;-84
2022/07/13 06:25:05;;;;;;;37.73;24.53;;;;;;;23.68;65.22;101332.25;4945361;28;122703;-84
2022/07/13 06:27:30;;;;;;;32.00;20.98;;;;;;;23.68;65.20;101332.25;4948495;28;122233;-85
2022/07/13 06:29:56;;;;;;;31.45;21.27;;;;;;;23.65;65.00;101326.94;4950685;28;124465;-85
2022/07/13 06:32:22;;;;;;;29.65;20.38;;;;;;;23.70;65.18;101335.28;4942483;28;125587;-85
2022/07/13 06:37:31;;;;;;;27.48;19.15;;;;;;;23.65;65.13;101319.28;4943698;28;125918;-85
2022/07/13 06:40:00;;;;;;;28.13;19.27;;;;;;;23.72;64.43;101326.38;4946824;28;122226;-85
2022/07/13 06:42:25;;;;;;;28.10;19.38;;;;;;;23.69;65.54;101313.41;4945661;28;124559;-85
2022/07/13 06:45:09;;;;;;;28.35;18.63;;;;;;;23.64;64.99;101303.78;4944084;28;122398;-85
2022/07/13 06:53:25;;;;;;;22.02;16.02;;;;;;;23.66;64.25;101326.44;4950996;28;123231;-85
2022/07/13 06:55:51;;;;;;;22.17;15.80;;;;;;;23.61;64.99;101323.69;4959947;28;122654;-84
2022/07/13 06:58:37;;;;;;;22.53;16.03;;;;;;;23.63;65.06;101333.06;4962703;28;123153;-85
2022/07/13 07:01:03;;;;;;;22.88;16.55;;;;;;;23.57;64.63;101323.97;4944865;28;121834;-85
2022/07/13 07:03:29;;;;;;;21.58;16.05;;;;;;;23.61;64.63;101341.25;4946508;28;122258;-84
2022/07/13 07:05:55;;;;;;;21.93;15.57;;;;;;;23.55;64.81;101329.31;4944098;28;122878;-84
2022/07/13 07:08:21;;;;;;;22.15;15.90;;;;;;;23.64;64.61;101342.22;4945188;28;122241;-84
2022/07/13 07:13:31;;;;;;;25.35;18.77;;;;;;;23.61;64.89;101335.63;4922609;28;124335;-84
2022/07/13 07:15:59;;;;;;;27.10;19.13;;;;;;;23.57;64.98;101337.97;4933612;28;121995;-84
2022/07/13 07:18:25;;;;;;;27.23;20.05;;;;;;;23.66;65.34;101334.06;4927891;28;125152;-84
2022/07/13 07:20:51;;;;;;;25.60;18.88;;;;;;;23.61;65.51;101313.22;4928594;28;121901;-85
2022/07/13 07:23:17;;;;;;;26.30;18.60;;;;;;;23.73;65.54;101317.44;4940942;28;124267;-85
2022/07/13 07:25:43;;;;;;;25.20;17.70;;;;;;;23.79;65.32;101306.91;4925427;28;125015;-85
2022/07/13 07:28:27;;;;;;;23.27;16.25;;;;;;;23.85;64.86;101301.22;4930665;28;122680;-85
2022/07/13 07:30:53;;;;;;;20.63;15.05;;;;;;;23.92;64.84;101297.84;4929342;28;123871;-85
2022/07/13 07:33:40;;;;;;;17.42;12.57;;;;;;;23.99;64.29;101293.69;4929842;28;126700;-85
2022/07/13 07:36:24;;;;;;;14.65;11.10;;;;;;;24.02;64.12;101296.19;4948014;28;123346;-84
2022/07/13 07:38:49;;;;;;;15.52;9.93;;;;;;;24.08;64.11;101290.47;4903960;28;125704;-85
2022/07/13 07:41:15;;;;;;;15.32;10.05;;;;;;;24.11;64.14;101289.41;4931975;28;122547;-85
2022/07/13 07:43:44;;;;;;;12.87;9.07;;;;;;;24.11;63.83;101284.56;4927033;28;125411;-84
2022/07/13 07:46:09;;;;;;;11.93;8.93;;;;;;;24.08;64.07;101273.66;4913425;28;125522;-85
2022/07/13 07:48:35;;;;;;;12.23;9.10;;;;;;;24.14;63.83;101280.72;4945201;28;122304;-84
2022/07/13 07:51:02;;;;;;;14.82;10.13;;;;;;;24.18;63.98;101280.41;4931934;28;124180;-85
2022/07/13 07:53:28;;;;;;;12.20;9.70;;;;;;;24.21;63.88;101270.19;4937929;28;125943;-84
2022/07/13 07:55:53;;;;;;;12.55;9.77;;;;;;;24.24;63.07;101267.06;4929734;28;122833;-85
2022/07/13 08:01:03;;;;;;;12.45;9.35;;;;;;;24.22;62.97;101261.25;4960497;28;122196;-84
2022/07/13 08:06:13;;;;;;;13.55;9.70;;;;;;;24.28;63.72;101259.13;4953830;28;124116;-84
2022/07/13 08:08:38;;;;;;;12.38;9.98;;;;;;;24.31;63.83;101260.88;4930095;28;123035;-84
2022/07/13 08:11:04;;;;;;;13.55;10.18;;;;;;;24.29;63.40;101249.44;4929835;28;124997;-84
2022/07/13 08:13:30;;;;;;;15.73;12.43;;;;;;;24.35;63.33;101250.09;4946218;28;122584;-85
2022/07/13 08:15:56;;;;;;;17.63;12.77;;;;;;;24.47;63.87;101247.88;4946059;28;122613;-85
2022/07/13 08:21:07;;;;;;;16.13;12.87;;;;;;;24.70;63.44;101239.88;4975198;28;125795;-85
2022/07/13 08:23:56;;;;;;;15.77;11.85;;;;;;;24.83;62.92;101253.91;4947873;28;123674;-85
2022/07/13 08:26:24;;;;;;;14.65;11.07;;;;;;;24.89;62.61;101248.22;4963207;28;122580;-86
2022/07/13 08:29:08;;;;;;;14.68;11.88;;;;;;;25.03;62.89;101256.13;4948205;28;123307;-85
2022/07/13 08:31:34;;;;;;;18.77;12.50;;;;;;;25.00;63.02;101237.56;4947889;28;122564;-86
2022/07/13 08:39:47;;;;;;;13.15;10.60;;;;;;;25.35;62.13;101241.25;4943082;28;123710;-86
2022/07/13 08:42:32;;;;;;;15.15;11.70;;;;;;;25.49;62.69;101244.78;4942646;28;123093;-86
2022/07/13 08:44:57;;;;;;;14.48;10.80;;;;;;;25.53;61.63;101240.34;4919426;28;122261;-87
2022/07/13 08:47:28;;;;;;;14.43;11.38;;;;;;;25.68;61.56;101243.38;4924234;28;125889;-85
2022/07/13 08:50:13;;;;;;;14.35;11.30;;;;;;;25.81;60.56;101258.72;4943197;28;122131;-86
2022/07/13 08:52:58;;;;;;;13.70;8.93;;;;;;;25.89;60.57;101262.34;4961640;28;123402;-84
2022/07/13 08:55:24;;;;;;;11.60;8.40;;;;;;;25.87;60.63;101240.44;4910062;28;124771;-86
2022/07/13 08:57:50;;;;;;;12.23;8.88;;;;;;;25.93;60.27;101245.91;4927639;28;122417;-85
2022/07/13 09:00:21;;;;;;;10.73;8.73;;;;;;;25.90;59.70;101235.75;4928731;28;124605;-86
2022/07/13 09:03:05;;;;;;;10.93;8.65;;;;;;;25.94;60.55;101255.84;4944598;28;124851;-86
2022/07/13 09:05:34;;;;;;;13.03;8.30;;;;;;;25.95;59.74;101252.50;4912552;28;122781;-85
2022/07/13 09:08:05;;;;;;;11.30;8.87;;;;;;;25.99;59.53;101258.53;4931395;28;124205;-86
2022/07/13 09:10:31;;;;;;;10.93;8.38;;;;;;;25.98;59.17;101250.66;4945027;28;123112;-86
2022/07/13 09:13:44;;;;;;;13.98;9.80;;;;;;;26.02;59.17;101245.44;4944349;28;122062;-85
2022/07/13 09:16:30;;;;;;;12.35;9.27;;;;;;;26.01;59.45;101232.69;4929152;28;123420;-84
2022/07/13 09:18:58;;;;;;;12.52;9.45;;;;;;;26.11;59.32;101245.00;4943511;28;123038;-84
2022/07/13 09:21:24;;;;;;;11.35;8.63;;;;;;;26.11;59.08;101236.56;4926500;28;125117;-85
2022/07/13 09:23:55;;;;;;;11.13;8.70;;;;;;;26.21;59.12;101240.41;4909421;28;126269;-83
2022/07/13 09:26:22;;;;;;;11.23;8.18;;;;;;;26.26;58.38;101242.34;4927405;28;122488;-83
2022/07/13 09:31:54;;;;;;;11.43;8.82;;;;;;;26.28;57.71;101242.56;4946290;28;125571;-84
2022/07/13 09:35:03;;;;;;;10.60;8.15;;;;;;;26.22;57.17;101239.09;4943165;28;122500;-83
2022/07/13 09:37:31;;;;;;;9.77;7.63;;;;;;;26.18;57.95;101241.50;4942174;28;122506;-83
2022/07/13 09:39:59;;;;;;;11.73;8.65;;;;;;;26.23;57.87;101237.78;4925978;28;123823;-83
2022/07/13 09:42:37;;;;;;;11.03;7.90;;;;;;;26.28;57.89;101236.94;4943496;28;125438;-84
2022/07/13 09:48:15;;;;;;;9.57;6.60;;;;;;;26.40;57.94;101231.81;4946981;28;122631;-85
2022/07/13 09:50:59;;;;;;;9.73;6.20;;;;;;;26.48;58.00;101229.81;4945594;28;121937;-85
2022/07/13 09:53:44;;;;;;;9.80;7.22;;;;;;;26.55;57.33;101234.00;4942814;28;123314;-83
2022/07/13 09:56:46;;;;;;;8.13;6.00;;;;;;;26.57;56.45;101232.16;4926906;28;122140;-84
2022/07/13 10:01:57;;;;;;;8.80;6.70;;;;;;;26.54;56.75;101238.13;4929554;28;123100;-85
2022/07/13 10:04:26;;;;;;;9.75;6.80;;;;;;;26.54;56.21;101232.50;4945715;28;123116;-84
2022/07/13 10:06:53;;;;;;;9.77;7.40;;;;;;;26.59;56.26;101246.41;4942004;28;122964;-85
2022/07/13 10:09:28;;;;;;;12.25;8.55;;;;;;;26.58;56.48;101244.16;4945881;28;123701;-83
2022/07/13 10:12:01;;;;;;;10.18;7.07;;;;;;;26.65;57.21;101249.09;4946319;28;123401;-83
2022/07/13 10:14:27;;;;;;;9.57;7.22;;;;;;;26.68;57.15;101250.03;4921624;28;126551;-84
2022/07/13 10:17:01;;;;;;;10.85;7.68;;;;;;;26.69;57.07;101243.09;4933891;28;122552;-85
2022/07/13 10:19:57;;;;;;;14.00;8.53;;;;;;;26.71;56.69;101255.31;4929000;28;124352;-83
2022/07/13 10:22:26;;;;;;;10.50;8.00;;;;;;;26.69;57.30;101249.50;4931725;28;122070;-84
2022/07/13 10:24:52;;;;;;;12.48;8.13;;;;;;;26.73;57.61;101243.50;4946290;28;124624;-84
2022/07/13 10:27:20;;;;;;;12.70;7.85;;;;;;;26.77;57.27;101249.56;4928897;28;125885;-83
2022/07/13 10:29:47;;;;;;;10.75;7.75;;;;;;;26.83;56.33;101245.28;4930520;28;122457;-83
2022/07/13 10:32:16;;;;;;;19.45;7.80;;;;;;;26.82;56.06;101240.22;4930341;28;124756;-83
2022/07/13 10:38:03;;;;;;;12.00;7.10;;;;;;;26.86;56.33;101249.81;4945467;28;122014;-85
2022/07/13 10:40:33;;;;;;;21.88;7.35;;;;;;;26.66;56.91;101236.53;4907399;28;122922;-83
2022/07/13 10:43:22;;;;;;;53.00;10.87;;;;;;;26.56;56.49;101232.69;4947067;28;122230;-84
2022/07/13 10:45:49;;;;;;;6.85;4.78;;;;;;;26.53;56.48;101236.63;4950009;28;122455;-82
2022/07/13 10:48:30;;;;;;;9.48;5.38;;;;;;;26.48;56.00;101235.44;4927157;28;125707;-86
2022/07/13 10:50:57;;;;;;;30.98;6.70;;;;;;;26.42;56.24;101253.75;4946350;28;122080;-85
2022/07/13 10:53:38;;;;;;;41.72;6.75;;;;;;;26.38;55.87;101242.84;4958969;28;122286;-80
2022/07/13 10:56:18;;;;;;;6.55;3.50;;;;;;;26.33;54.97;101240.16;4937707;28;122943;-83
2022/07/13 10:58:49;;;;;;;5.70;3.28;;;;;;;26.42;54.73;101239.69;4947109;28;122498;-82
2022/07/13 11:01:42;;;;;;;6.45;3.38;;;;;;;26.58;54.27;101244.16;4946374;28;122113;-81
2022/07/13 11:04:09;;;;;;;5.40;3.20;;;;;;;26.69;52.82;101243.09;4949760;28;123323;-82
2022/07/13 11:06:36;;;;;;;3.38;2.60;;;;;;;26.75;51.75;101233.22;4946419;28;122473;-82
2022/07/13 11:09:20;;;;;;;3.05;2.50;;;;;;;26.88;51.09;101249.25;4930173;28;125589;-83
2022/07/13 11:11:53;;;;;;;4.22;2.53;;;;;;;26.92;50.65;101250.41;4929712;28;122506;-88
2022/07/13 11:14:41;;;;;;;12.50;3.00;;;;;;;26.98;49.45;101246.72;4946484;28;124778;-87
2022/07/13 11:17:19;;;;;;;;;;;;;;;26.87;50.80;101256.94;4947355;28;125932;-86
2022/07/13 11:19:52;;;;;;;8.65;2.97;;;;;;;26.81;49.78;101249.97;4945469;28;122179;-86
2022/07/13 11:22:18;;;;;;;3.30;2.58;;;;;;;26.87;49.47;101248.50;4929295;28;125138;-85
2022/07/13 11:27:59;;;;;;;5.93;3.03;;;;;;;26.99;49.98;101259.50;4931885;28;122362;-86
2022/07/13 11:30:29;;;;;;;5.53;3.08;;;;;;;27.08;49.83;101259.00;4947341;28;124274;-84
2022/07/13 11:32:58;;;;;;;58.83;7.93;;;;;;;27.11;49.85;101269.91;4962916;28;123011;-85
2022/07/13 11:35:46;;;;;;;3.65;3.05;;;;;;;27.14;49.49;101265.22;4913769;28;124371;-84
2022/07/13 11:38:14;;;;;;;3.55;2.97;;;;;;;27.03;49.73;101257.09;4927931;28;124945;-83
2022/07/13 11:40:40;;;;;;;4.55;3.38;;;;;;;27.12;50.40;101262.22;4946165;28;123998;-83
2022/07/13 11:43:08;;;;;;;5.15;3.20;;;;;;;27.25;51.00;101264.19;4980117;28;122528;-84
2022/07/13 11:45:34;;;;;;;5.07;3.05;;;;;;;27.36;50.43;101258.97;4933201;28;124067;-84
2022/07/13 11:48:02;;;;;;;4.45;3.13;;;;;;;27.49;49.78;101270.16;4927630;28;122640;-85
2022/07/13 11:50:42;;;;;;;4.25;2.97;;;;;;;27.39;49.51;101257.88;4932634;28;123931;-84
2022/07/13 11:53:08;;;;;;;4.97;3.42;;;;;;;27.47;49.14;101280.47;4939176;28;122300;-84
2022/07/13 11:56:05;;;;;;;5.38;3.28;;;;;;;27.42;48.74;101270.84;4936744;28;122539;-85
2022/07/13 11:58:35;;;;;;;7.15;2.90;;;;;;;27.34;49.14;101267.25;4939556;28;122960;-85
2022/07/13 12:01:10;;;;;;;3.25;2.70;;;;;;;27.35;48.67;101274.38;4928228;28;122473;-85
2022/07/13 12:03:35;;;;;;;4.93;2.63;;;;;;;27.26;48.01;101274.91;4944870;28;122552;-84
2022/07/13 12:06:11;;;;;;;4.85;2.25;;;;;;;27.26;48.22;101283.34;4943219;28;122595;-85
2022/07/13 12:08:42;;;;;;;3.17;2.53;;;;;;;27.21;48.67;101273.00;4943775;28;122085;-86
2022/07/13 12:11:17;;;;;;;;;;;;;;;27.24;49.00;101279.56;4929231;28;125114;-84
2022/07/13 12:13:44;;;;;;;3.30;2.38;;;;;;;27.21;48.85;101270.19;4945837;28;122532;-83
2022/07/13 12:16:12;;;;;;;10.35;3.53;;;;;;;27.33;48.82;101287.50;4948915;28;124542;-83
2022/07/13 12:19:06;;;;;;;3.22;2.25;;;;;;;27.39;49.16;101293.72;4948400;28;124410;-88
2022/07/13 12:21:32;;;;;;;;;;;;;;;27.40;49.37;101289.59;4946485;28;122649;-85
2022/07/13 12:23:58;;;;;;;6.55;2.70;;;;;;;27.38;49.18;101275.31;4933332;28;125282;-85
2022/07/13 12:26:27;;;;;;;4.82;2.53;;;;;;;27.35;49.02;101277.19;4946788;28;122563;-86
2022/07/13 12:28:54;;;;;;;8.13;3.17;;;;;;;27.29;48.27;101278.66;4948416;28;122163;-89
2022/07/13 12:31:20;;;;;;;;;;;;;;;27.25;49.45;101289.53;4947585;28;125487;-85
2022/07/13 12:33:47;;;;;;;;;;;;;;;27.18;49.77;101286.09;4935091;28;125393;-87